createdAt,value
2023-05-24T00:00:13.332Z,17.87
2023-05-24T00:01:37.708Z,17.88
2023-05-24T00:02:44.051Z,17.88
2023-05-24T00:03:47.965Z,17.89
2023-05-24T00:04:53.031Z,17.87
2023-05-24T00:05:57.034Z,17.87
2023-05-24T00:07:03.577Z,17.85
2023-05-24T00:08:06.661Z,17.85
2023-05-24T00:09:09.546Z,17.83
2023-05-24T00:10:12.659Z,17.81
2023-05-24T00:11:15.668Z,17.81
2023-05-24T00:12:18.551Z,17.83
2023-05-24T00:13:21.524Z,17.81
2023-05-24T00:14:25.384Z,17.80
2023-05-24T00:15:28.398Z,17.80
2023-05-24T00:16:31.411Z,17.79
2023-05-24T00:17:41.269Z,17.79
2023-05-24T00:18:47.096Z,17.78
2023-05-24T00:19:50.418Z,17.78
2023-05-24T00:20:53.506Z,17.77
2023-05-24T00:21:56.676Z,17.77
2023-05-24T00:22:59.625Z,17.77
2023-05-24T00:24:03.101Z,17.74
2023-05-24T00:25:06.557Z,17.75
2023-05-24T00:26:10.398Z,17.69
2023-05-24T00:27:16.164Z,17.69
2023-05-24T00:28:19.248Z,17.69
2023-05-24T00:29:22.143Z,17.68
2023-05-24T00:30:25.103Z,17.66
2023-05-24T00:31:28.210Z,17.66
2023-05-24T00:32:31.311Z,17.65
2023-05-24T00:33:34.440Z,17.64
2023-05-24T00:34:37.382Z,17.63
2023-05-24T00:35:40.519Z,17.62
2023-05-24T00:36:43.429Z,17.62
2023-05-24T00:37:46.609Z,17.61
2023-05-24T00:38:53.181Z,17.61
2023-05-24T00:39:56.093Z,17.61
2023-05-24T00:41:01.489Z,17.61
2023-05-24T00:42:04.822Z,17.63
2023-05-24T00:43:07.804Z,17.62
2023-05-24T00:44:11.227Z,17.61
2023-05-24T00:45:14.431Z,17.60
2023-05-24T00:46:17.504Z,17.60
2023-05-24T00:47:20.627Z,17.64
2023-05-24T00:48:27.752Z,17.63
2023-05-24T00:49:31.629Z,17.63
2023-05-24T00:50:35.104Z,17.62
2023-05-24T00:51:38.607Z,17.61
2023-05-24T00:52:42.395Z,17.60
2023-05-24T00:53:48.381Z,17.61
2023-05-24T00:54:51.885Z,17.56
2023-05-24T00:55:56.684Z,17.55
2023-05-24T00:56:59.905Z,17.55
2023-05-24T00:58:03.181Z,17.54
2023-05-24T00:59:06.641Z,17.53
2023-05-24T01:00:11.786Z,17.53
2023-05-24T01:01:14.900Z,17.53
2023-05-24T01:02:18.638Z,17.52
2023-05-24T01:03:23.225Z,17.51
2023-05-24T01:04:26.420Z,17.50
2023-05-24T01:05:29.349Z,17.51
2023-05-24T01:07:10.077Z,17.50
2023-05-24T01:08:29.397Z,17.49
2023-05-24T01:09:42.094Z,17.52
2023-05-24T01:11:04.701Z,17.47
2023-05-24T01:12:26.015Z,17.49
2023-05-24T01:13:47.774Z,17.50
2023-05-24T01:15:31.267Z,17.45
2023-05-24T01:16:46.687Z,17.42
2023-05-24T01:17:50.525Z,17.41
2023-05-24T01:18:57.205Z,17.40
2023-05-24T01:20:11.400Z,17.40
2023-05-24T01:21:39.429Z,17.39
2023-05-24T01:22:48.715Z,17.38
2023-05-24T01:24:14.390Z,17.37
2023-05-24T01:25:49.646Z,17.38
2023-05-24T01:27:09.413Z,17.37
2023-05-24T01:28:13.006Z,17.36
2023-05-24T01:29:16.857Z,17.34
2023-05-24T01:30:20.742Z,17.34
2023-05-24T01:31:24.753Z,17.33
2023-05-24T01:32:28.438Z,17.33
2023-05-24T01:33:32.638Z,17.33
2023-05-24T01:34:35.583Z,17.32
2023-05-24T01:35:41.437Z,17.32
2023-05-24T01:36:44.360Z,17.31
2023-05-24T01:37:48.113Z,17.31
2023-05-24T01:38:51.858Z,17.34
2023-05-24T01:39:55.458Z,17.32
2023-05-24T01:41:05.793Z,17.35
2023-05-24T01:42:27.276Z,17.32
2023-05-24T01:43:42.771Z,17.35
2023-05-24T01:44:55.702Z,17.30
2023-05-24T01:46:03.399Z,17.28
2023-05-24T01:47:09.391Z,17.28
2023-05-24T01:48:19.908Z,17.27
2023-05-24T01:49:27.059Z,17.27
2023-05-24T01:50:37.345Z,17.26
2023-05-24T01:51:48.639Z,17.25
2023-05-24T01:52:53.628Z,17.24
2023-05-24T01:53:58.881Z,17.23
2023-05-24T01:55:03.614Z,17.23
2023-05-24T01:56:08.249Z,17.24
2023-05-24T01:57:11.838Z,17.24
2023-05-24T01:58:16.816Z,17.23
2023-05-24T01:59:22.055Z,17.23
2023-05-24T02:00:25.363Z,17.23
2023-05-24T02:01:30.139Z,17.22
2023-05-24T02:02:33.153Z,17.21
2023-05-24T02:03:38.497Z,17.23
2023-05-24T02:04:41.623Z,17.25
2023-05-24T02:05:46.005Z,17.24
2023-05-24T02:06:48.890Z,17.23
2023-05-24T02:07:52.024Z,17.22
2023-05-24T02:08:54.938Z,17.21
2023-05-24T02:09:57.879Z,17.20
2023-05-24T02:11:00.947Z,17.19
2023-05-24T02:12:04.173Z,17.18
2023-05-24T02:13:07.984Z,17.16
2023-05-24T02:14:11.547Z,17.15
2023-05-24T02:15:15.100Z,17.14
2023-05-24T02:16:18.674Z,17.12
2023-05-24T02:17:22.713Z,17.11
2023-05-24T02:18:25.836Z,17.10
2023-05-24T02:19:28.772Z,17.10
2023-05-24T02:20:31.761Z,17.09
2023-05-24T02:21:36.628Z,17.08
2023-05-24T02:22:39.912Z,17.02
2023-05-24T02:23:42.884Z,17.00
2023-05-24T02:24:48.464Z,16.99
2023-05-24T02:25:51.505Z,16.99
2023-05-24T02:26:56.061Z,16.97
2023-05-24T02:27:59.908Z,16.97
2023-05-24T02:29:03.330Z,16.96
2023-05-24T02:30:07.293Z,16.94
2023-05-24T02:31:10.486Z,16.93
2023-05-24T02:32:13.764Z,16.92
2023-05-24T02:33:16.800Z,16.91
2023-05-24T02:34:19.782Z,16.90
2023-05-24T02:35:22.800Z,16.94
2023-05-24T02:36:25.815Z,16.94
2023-05-24T02:37:28.811Z,16.93
2023-05-24T02:38:32.867Z,16.94
2023-05-24T02:39:35.796Z,16.92
2023-05-24T02:40:38.790Z,16.91
2023-05-24T02:41:42.275Z,16.91
2023-05-24T02:42:45.644Z,16.89
2023-05-24T02:43:48.945Z,16.88
2023-05-24T02:44:52.992Z,16.87
2023-05-24T02:45:56.391Z,16.85
2023-05-24T02:46:59.392Z,16.84
2023-05-24T02:48:02.549Z,16.84
2023-05-24T02:49:05.588Z,16.84
2023-05-24T02:50:08.999Z,16.82
2023-05-24T02:51:12.017Z,16.79
2023-05-24T02:52:16.089Z,16.78
2023-05-24T02:53:19.053Z,16.76
2023-05-24T02:54:22.048Z,16.74
2023-05-24T02:55:27.073Z,16.70
2023-05-24T02:56:30.147Z,16.68
2023-05-24T02:57:34.296Z,16.62
2023-05-24T02:58:40.587Z,16.59
2023-05-24T02:59:43.681Z,16.56
2023-05-24T03:00:47.664Z,16.56
2023-05-24T03:01:51.075Z,16.55
2023-05-24T03:02:55.618Z,16.59
2023-05-24T03:03:58.778Z,16.54
2023-05-24T03:05:01.775Z,16.52
2023-05-24T03:06:08.704Z,16.51
2023-05-24T03:07:11.688Z,16.50
2023-05-24T03:08:14.734Z,16.48
2023-05-24T03:09:19.088Z,16.47
2023-05-24T03:10:22.096Z,16.46
2023-05-24T03:11:26.351Z,16.44
2023-05-24T03:12:29.436Z,16.43
2023-05-24T03:13:32.556Z,16.41
2023-05-24T03:14:35.600Z,16.39
2023-05-24T03:15:38.559Z,16.39
2023-05-24T03:16:41.784Z,16.37
2023-05-24T03:17:44.877Z,16.36
2023-05-24T03:18:50.833Z,16.35
2023-05-24T03:19:54.071Z,16.35
2023-05-24T03:20:57.047Z,16.34
2023-05-24T03:21:59.943Z,16.33
2023-05-24T03:23:03.193Z,16.32
2023-05-24T03:24:08.582Z,16.31
2023-05-24T03:25:12.317Z,16.31
2023-05-24T03:26:15.591Z,16.30
2023-05-24T03:27:18.563Z,16.30
2023-05-24T03:28:22.410Z,16.30
2023-05-24T03:29:25.634Z,16.30
2023-05-24T03:30:29.532Z,16.31
2023-05-24T03:31:33.514Z,16.32
2023-05-24T03:32:36.863Z,16.33
2023-05-24T03:33:39.857Z,16.34
2023-05-24T03:34:42.965Z,16.35
2023-05-24T03:35:46.533Z,16.36
2023-05-24T03:36:49.501Z,16.36
2023-05-24T03:37:53.309Z,16.37
2023-05-24T03:38:58.546Z,16.36
2023-05-24T03:40:01.869Z,16.35
2023-05-24T03:41:17.686Z,16.32
2023-05-24T03:42:21.422Z,16.30
2023-05-24T03:43:24.932Z,16.27
2023-05-24T03:44:32.936Z,16.24
2023-05-24T03:45:39.817Z,16.22
2023-05-24T03:46:43.523Z,16.21
2023-05-24T03:47:47.065Z,16.19
2023-05-24T03:48:50.247Z,16.18
2023-05-24T03:49:53.235Z,16.17
2023-05-24T03:50:56.134Z,16.18
2023-05-24T03:51:59.079Z,16.19
2023-05-24T03:53:02.137Z,16.20
2023-05-24T03:54:05.348Z,16.21
2023-05-24T03:55:08.855Z,16.20
2023-05-24T03:56:11.851Z,16.22
2023-05-24T03:57:14.917Z,16.25
2023-05-24T03:58:18.457Z,16.28
2023-05-24T03:59:22.566Z,16.30
2023-05-24T04:00:25.763Z,16.31
2023-05-24T04:01:33.825Z,16.33
2023-05-24T04:02:40.570Z,16.36
2023-05-24T04:03:46.364Z,16.40
2023-05-24T04:04:49.429Z,16.42
2023-05-24T04:05:52.424Z,16.45
2023-05-24T04:06:56.572Z,16.49
2023-05-24T04:07:59.812Z,16.53
2023-05-24T04:09:03.154Z,16.58
2023-05-24T04:10:07.727Z,16.62
2023-05-24T04:11:11.867Z,16.65
2023-05-24T04:12:14.824Z,16.67
2023-05-24T04:13:17.896Z,16.69
2023-05-24T04:14:21.049Z,16.71
2023-05-24T04:15:24.484Z,16.73
2023-05-24T04:16:27.960Z,16.76
2023-05-24T04:17:35.136Z,16.79
2023-05-24T04:18:38.466Z,16.83
2023-05-24T04:19:41.624Z,16.86
2023-05-24T04:20:45.035Z,16.91
2023-05-24T04:21:49.245Z,16.96
2023-05-24T04:22:52.216Z,17.00
2023-05-24T04:23:56.143Z,17.04
2023-05-24T04:24:59.198Z,17.09
2023-05-24T04:26:02.133Z,17.14
2023-05-24T04:27:06.140Z,17.17
2023-05-24T04:28:09.579Z,17.20
2023-05-24T04:29:13.106Z,17.24
2023-05-24T04:30:16.787Z,17.27
2023-05-24T04:31:20.932Z,17.32
2023-05-24T04:32:23.891Z,17.35
2023-05-24T04:33:26.905Z,17.39
2023-05-24T04:34:29.904Z,17.43
2023-05-24T04:35:33.680Z,17.46
2023-05-24T04:36:36.676Z,17.49
2023-05-24T04:37:40.944Z,17.53
2023-05-24T04:38:45.781Z,17.58
2023-05-24T04:39:48.808Z,17.64
2023-05-24T04:40:51.784Z,17.68
2023-05-24T04:41:56.536Z,17.73
2023-05-24T04:42:59.485Z,17.73
2023-05-24T04:44:02.787Z,17.76
2023-05-24T04:45:06.397Z,17.81
2023-05-24T04:46:09.689Z,17.87
2023-05-24T04:47:13.075Z,17.92
2023-05-24T04:48:15.955Z,17.97
2023-05-24T04:49:19.631Z,18.00
2023-05-24T04:50:22.526Z,18.03
2023-05-24T04:51:25.682Z,18.06
2023-05-24T04:52:28.595Z,18.10
2023-05-24T04:53:33.060Z,18.12
2023-05-24T04:54:36.077Z,18.14
2023-05-24T04:55:38.995Z,18.15
2023-05-24T04:56:41.984Z,18.16
2023-05-24T04:57:45.440Z,18.20
2023-05-24T04:58:48.449Z,18.23
2023-05-24T04:59:51.466Z,18.23
2023-05-24T05:00:54.538Z,18.24
2023-05-24T05:01:57.816Z,18.24
2023-05-24T05:03:00.922Z,18.23
2023-05-24T05:04:08.073Z,18.22
2023-05-24T05:05:11.365Z,18.18
2023-05-24T05:06:14.301Z,18.23
2023-05-24T05:07:17.221Z,18.22
2023-05-24T05:08:20.735Z,18.19
2023-05-24T05:09:25.036Z,18.18
2023-05-24T05:10:28.105Z,18.12
2023-05-24T05:11:31.703Z,18.14
2023-05-24T05:12:34.648Z,18.15
2023-05-24T05:13:37.640Z,18.14
2023-05-24T05:14:40.655Z,18.12
2023-05-24T05:15:44.700Z,18.11
2023-05-24T05:16:48.006Z,18.06
2023-05-24T05:17:51.250Z,18.03
2023-05-24T05:18:54.222Z,18.02
2023-05-24T05:19:57.229Z,18.01
2023-05-24T05:21:00.203Z,18.01
2023-05-24T05:22:03.177Z,18.01
2023-05-24T05:23:06.346Z,18.00
2023-05-24T05:24:09.665Z,18.01
2023-05-24T05:25:12.630Z,18.01
2023-05-24T05:26:16.313Z,18.02
2023-05-24T05:27:19.255Z,18.03
2023-05-24T05:28:22.210Z,18.05
2023-05-24T05:29:25.110Z,18.07
2023-05-24T05:30:28.121Z,18.08
2023-05-24T05:31:31.679Z,18.10
2023-05-24T05:32:35.675Z,18.12
2023-05-24T05:33:38.667Z,18.16
2023-05-24T05:34:41.620Z,18.19
2023-05-24T05:35:44.507Z,18.23
2023-05-24T05:36:47.441Z,18.28
2023-05-24T05:37:50.388Z,18.31
2023-05-24T05:38:54.744Z,18.34
2023-05-24T05:39:58.178Z,18.38
2023-05-24T05:41:01.108Z,18.44
2023-05-24T05:42:04.152Z,18.49
2023-05-24T05:43:08.641Z,18.54
2023-05-24T05:44:13.003Z,18.58
2023-05-24T05:45:16.844Z,18.61
2023-05-24T05:46:21.589Z,18.64
2023-05-24T05:47:24.630Z,18.68
2023-05-24T05:48:27.713Z,18.72
2023-05-24T05:49:31.754Z,18.76
2023-05-24T05:50:34.769Z,18.82
2023-05-24T05:51:38.831Z,18.87
2023-05-24T05:52:42.205Z,18.93
2023-05-24T05:53:45.419Z,19.02
2023-05-24T05:54:48.320Z,19.04
2023-05-24T05:55:51.239Z,19.08
2023-05-24T05:56:54.287Z,19.10
2023-05-24T05:57:57.177Z,19.13
2023-05-24T05:59:00.121Z,19.16
2023-05-24T06:00:03.877Z,19.17
2023-05-24T06:01:15.936Z,19.17
2023-05-24T06:02:19.311Z,19.13
2023-05-24T06:03:22.396Z,19.11
2023-05-24T06:04:25.640Z,19.11
2023-05-24T06:05:28.549Z,19.11
2023-05-24T06:06:31.552Z,19.11
2023-05-24T06:07:35.886Z,19.15
2023-05-24T06:08:41.013Z,19.23
2023-05-24T06:09:43.970Z,19.34
2023-05-24T06:10:46.914Z,19.42
2023-05-24T06:11:49.984Z,19.55
2023-05-24T06:12:52.895Z,19.61
2023-05-24T06:13:55.834Z,19.67
2023-05-24T06:14:59.631Z,19.72
2023-05-24T06:16:02.593Z,19.76
2023-05-24T06:17:06.846Z,19.79
2023-05-24T06:18:09.899Z,19.82
2023-05-24T06:19:13.707Z,19.87
2023-05-24T06:20:17.173Z,19.91
2023-05-24T06:21:21.711Z,19.96
2023-05-24T06:22:24.667Z,19.98
2023-05-24T06:23:27.595Z,20.02
2023-05-24T06:24:30.510Z,20.08
2023-05-24T06:25:34.551Z,20.18
2023-05-24T06:26:37.689Z,20.23
2023-05-24T06:27:40.942Z,20.30
2023-05-24T06:28:44.367Z,20.36
2023-05-24T06:29:47.380Z,20.44
2023-05-24T06:30:50.743Z,20.52
2023-05-24T06:31:53.777Z,20.59
2023-05-24T06:32:57.622Z,20.62
2023-05-24T06:34:04.279Z,20.66
2023-05-24T06:35:08.174Z,20.76
2023-05-24T06:36:11.108Z,20.88
2023-05-24T06:37:17.682Z,20.98
2023-05-24T06:38:21.038Z,21.02
2023-05-24T06:39:25.418Z,21.08
2023-05-24T06:40:28.332Z,21.10
2023-05-24T06:41:31.319Z,21.12
2023-05-24T06:42:35.167Z,21.14
2023-05-24T06:43:38.811Z,21.16
2023-05-24T06:44:41.769Z,21.18
2023-05-24T06:45:44.754Z,21.20
2023-05-24T06:46:48.111Z,21.23
2023-05-24T06:47:51.184Z,21.21
2023-05-24T06:48:54.225Z,21.20
2023-05-24T06:49:57.409Z,21.23
2023-05-24T06:51:01.076Z,21.30
2023-05-24T06:52:04.186Z,21.45
2023-05-24T06:53:07.110Z,21.60
2023-05-24T06:54:10.011Z,21.67
2023-05-24T06:55:13.038Z,21.71
2023-05-24T06:56:15.951Z,21.77
2023-05-24T06:57:19.040Z,21.85
2023-05-24T06:58:23.048Z,21.96
2023-05-24T06:59:27.312Z,22.01
2023-05-24T07:00:30.282Z,22.15
2023-05-24T07:01:33.863Z,22.37
2023-05-24T07:02:36.973Z,22.61
2023-05-24T07:03:40.011Z,22.75
2023-05-24T07:04:42.984Z,22.83
2023-05-24T07:05:45.980Z,22.89
2023-05-24T07:06:48.866Z,22.94
2023-05-24T07:07:51.881Z,22.95
2023-05-24T07:08:55.163Z,22.94
2023-05-24T07:09:58.238Z,22.93
2023-05-24T07:11:02.497Z,22.89
2023-05-24T07:12:07.734Z,22.88
2023-05-24T07:13:13.734Z,22.92
2023-05-24T07:14:16.843Z,22.90
2023-05-24T07:15:19.736Z,22.86
2023-05-24T07:16:22.824Z,22.87
2023-05-24T07:17:25.860Z,22.96
2023-05-24T07:18:28.833Z,23.12
2023-05-24T07:19:34.144Z,23.25
2023-05-24T07:20:37.181Z,23.34
2023-05-24T07:21:40.071Z,23.41
2023-05-24T07:22:44.158Z,23.44
2023-05-24T07:23:47.388Z,23.45
2023-05-24T07:24:50.297Z,23.49
2023-05-24T07:25:53.290Z,23.55
2023-05-24T07:26:57.708Z,23.63
2023-05-24T07:28:01.398Z,23.65
2023-05-24T07:29:04.404Z,23.68
2023-05-24T07:30:16.387Z,23.73
2023-05-24T07:31:27.723Z,23.78
2023-05-24T07:32:33.381Z,23.82
2023-05-24T07:33:38.254Z,23.74
2023-05-24T07:34:41.642Z,23.61
2023-05-24T07:35:46.033Z,23.55
2023-05-24T07:36:49.608Z,23.57
2023-05-24T07:37:52.507Z,23.61
2023-05-24T07:38:55.530Z,23.72
2023-05-24T07:39:58.555Z,23.85
2023-05-24T07:41:03.767Z,23.94
2023-05-24T07:42:07.349Z,24.02
2023-05-24T07:43:10.401Z,24.13
2023-05-24T07:44:13.715Z,24.35
2023-05-24T07:45:16.611Z,24.65
2023-05-24T07:46:19.573Z,24.88
2023-05-24T07:47:22.542Z,25.09
2023-05-24T07:48:26.027Z,25.28
2023-05-24T07:49:28.933Z,25.42
2023-05-24T07:50:32.584Z,25.42
2023-05-24T07:51:35.489Z,25.38
2023-05-24T07:52:38.926Z,25.37
2023-05-24T07:53:41.785Z,25.36
2023-05-24T07:54:44.745Z,25.30
2023-05-24T07:55:47.788Z,25.22
2023-05-24T07:56:50.722Z,25.17
2023-05-24T07:57:53.659Z,25.13
2023-05-24T07:59:14.319Z,25.07
2023-05-24T08:00:17.853Z,24.96
2023-05-24T08:01:21.084Z,24.94
2023-05-24T08:02:24.465Z,25.03
2023-05-24T08:03:27.713Z,25.16
2023-05-24T08:04:31.201Z,25.22
2023-05-24T08:05:34.089Z,25.37
2023-05-24T08:06:37.071Z,25.50
2023-05-24T08:07:40.801Z,25.57
2023-05-24T08:08:43.691Z,25.61
2023-05-24T08:09:47.574Z,25.64
2023-05-24T08:10:50.511Z,25.63
2023-05-24T08:11:53.663Z,25.59
2023-05-24T08:12:56.862Z,25.61
2023-05-24T08:13:59.789Z,25.67
2023-05-24T08:15:02.808Z,25.70
2023-05-24T08:16:06.289Z,25.66
2023-05-24T08:17:09.175Z,25.65
2023-05-24T08:18:12.137Z,25.73
2023-05-24T08:19:15.112Z,25.90
2023-05-24T08:20:18.193Z,26.14
2023-05-24T08:21:21.504Z,26.34
2023-05-24T08:22:24.451Z,26.48
2023-05-24T08:23:30.015Z,26.59
2023-05-24T08:24:32.968Z,26.75
2023-05-24T08:25:36.294Z,26.80
2023-05-24T08:26:39.271Z,26.75
2023-05-24T08:27:42.631Z,26.61
2023-05-24T08:28:45.592Z,26.55
2023-05-24T08:29:48.530Z,26.56
2023-05-24T08:30:51.414Z,26.57
2023-05-24T08:31:54.370Z,26.58
2023-05-24T08:32:58.263Z,26.58
2023-05-24T08:34:02.705Z,26.58
2023-05-24T08:35:18.218Z,26.62
2023-05-24T08:36:22.937Z,26.67
2023-05-24T08:37:26.570Z,26.69
2023-05-24T08:38:30.000Z,26.63
2023-05-24T08:39:33.252Z,26.54
2023-05-24T08:40:36.273Z,26.46
2023-05-24T08:41:39.275Z,26.37
2023-05-24T08:42:42.629Z,26.25
2023-05-24T08:43:47.189Z,26.15
2023-05-24T08:44:58.650Z,26.06
2023-05-24T08:46:03.992Z,26.00
2023-05-24T08:47:08.337Z,25.94
2023-05-24T08:48:13.427Z,25.84
2023-05-24T08:49:16.690Z,25.70
2023-05-24T08:50:20.556Z,25.63
2023-05-24T08:51:24.663Z,25.58
2023-05-24T08:52:28.783Z,25.57
2023-05-24T08:53:36.349Z,25.53
2023-05-24T08:54:40.864Z,25.48
2023-05-24T08:55:44.493Z,25.38
2023-05-24T08:56:48.446Z,25.30
2023-05-24T08:57:52.752Z,25.21
2023-05-24T08:58:56.195Z,25.13
2023-05-24T08:59:59.396Z,25.03
2023-05-24T09:01:02.739Z,24.87
2023-05-24T09:02:06.477Z,24.78
2023-05-24T09:03:11.500Z,24.63
2023-05-24T09:04:14.870Z,24.54
2023-05-24T09:05:21.817Z,24.51
2023-05-24T09:06:25.519Z,24.48
2023-05-24T09:07:30.445Z,24.36
2023-05-24T09:08:35.814Z,24.30
2023-05-24T09:09:47.537Z,24.17
2023-05-24T09:10:55.493Z,24.10
2023-05-24T09:12:04.764Z,24.04
2023-05-24T09:13:08.077Z,24.04
2023-05-24T09:14:11.449Z,24.05
2023-05-24T09:15:14.596Z,24.04
2023-05-24T09:16:17.604Z,23.99
2023-05-24T09:17:21.236Z,23.97
2023-05-24T09:18:24.336Z,23.88
2023-05-24T09:19:29.236Z,23.83
2023-05-24T09:20:32.320Z,23.85
2023-05-24T09:21:35.481Z,23.82
2023-05-24T09:22:41.864Z,23.84
2023-05-24T09:23:45.613Z,23.88
2023-05-24T09:24:53.119Z,23.94
2023-05-24T09:25:56.161Z,23.94
2023-05-24T09:27:06.774Z,23.95
2023-05-24T09:28:09.702Z,23.99
2023-05-24T09:29:12.744Z,24.00
2023-05-24T09:30:16.496Z,23.98
2023-05-24T09:31:19.612Z,23.96
2023-05-24T09:32:24.539Z,23.92
2023-05-24T09:33:34.731Z,23.93
2023-05-24T09:34:47.389Z,23.98
2023-05-24T09:35:50.314Z,24.06
2023-05-24T09:36:53.639Z,24.12
2023-05-24T09:38:00.061Z,24.17
2023-05-24T09:39:10.609Z,24.17
2023-05-24T09:40:19.551Z,24.10
2023-05-24T09:41:23.053Z,24.05
2023-05-24T09:42:30.437Z,24.00
2023-05-24T09:43:35.129Z,23.98
2023-05-24T09:44:38.112Z,24.01
2023-05-24T09:45:49.145Z,24.03
2023-05-24T09:46:52.351Z,24.06
2023-05-24T09:47:55.359Z,24.11
2023-05-24T09:49:04.088Z,24.17
2023-05-24T09:50:16.643Z,24.21
2023-05-24T09:51:20.090Z,24.21
2023-05-24T09:52:23.192Z,24.21
2023-05-24T09:53:26.843Z,24.24
2023-05-24T09:54:32.407Z,24.28
2023-05-24T09:55:38.410Z,24.30
2023-05-24T09:56:42.127Z,24.27
2023-05-24T09:57:46.032Z,24.27
2023-05-24T09:58:49.061Z,24.23
2023-05-24T09:59:52.607Z,24.16
2023-05-24T10:01:05.199Z,24.12
2023-05-24T10:02:12.911Z,24.07
2023-05-24T10:03:16.267Z,24.09
2023-05-24T10:04:19.507Z,24.13
2023-05-24T10:05:23.384Z,24.13
2023-05-24T10:06:26.285Z,24.17
2023-05-24T10:07:29.922Z,24.25
2023-05-24T10:08:34.910Z,24.32
2023-05-24T10:09:38.338Z,24.42
2023-05-24T10:10:42.340Z,24.48
2023-05-24T10:11:45.997Z,24.54
2023-05-24T10:12:50.105Z,24.54
2023-05-24T10:13:53.670Z,24.51
2023-05-24T10:14:58.104Z,24.46
2023-05-24T10:16:01.100Z,24.39
2023-05-24T10:17:08.173Z,24.39
2023-05-24T10:18:13.880Z,24.43
2023-05-24T10:19:17.354Z,24.44
2023-05-24T10:20:21.336Z,24.48
2023-05-24T10:21:26.093Z,24.56
2023-05-24T10:22:29.612Z,24.63
2023-05-24T10:23:33.132Z,24.69
2023-05-24T10:24:41.166Z,24.70
2023-05-24T10:25:51.952Z,24.66
2023-05-24T10:26:56.426Z,24.61
2023-05-24T10:28:04.772Z,24.60
2023-05-24T10:29:17.025Z,24.63
2023-05-24T10:30:56.852Z,24.66
2023-05-24T10:32:00.589Z,24.74
2023-05-24T10:33:08.281Z,24.76
2023-05-24T10:34:11.776Z,24.81
2023-05-24T10:35:16.410Z,24.87
2023-05-24T10:36:19.742Z,24.87
2023-05-24T10:37:24.929Z,24.85
2023-05-24T10:38:29.805Z,24.86
2023-05-24T10:39:33.665Z,24.86
2023-05-24T10:40:42.074Z,24.81
2023-05-24T10:41:45.179Z,24.77
2023-05-24T10:42:48.720Z,24.80
2023-05-24T10:44:07.904Z,24.80
2023-05-24T10:45:38.979Z,24.95
2023-05-24T10:47:11.122Z,25.10
2023-05-24T10:48:14.320Z,25.24
2023-05-24T10:49:19.306Z,25.31
2023-05-24T10:50:24.059Z,25.42
2023-05-24T10:51:33.041Z,25.52
2023-05-24T10:52:37.177Z,25.61
2023-05-24T10:53:41.006Z,25.65
2023-05-24T10:55:07.948Z,25.75
2023-05-24T10:56:13.776Z,26.08
2023-05-24T10:57:24.694Z,26.30
2023-05-24T10:58:44.855Z,26.53
2023-05-24T10:59:47.842Z,26.69
2023-05-24T11:00:52.227Z,26.81
2023-05-24T11:02:00.858Z,26.94
2023-05-24T11:03:09.075Z,27.06
2023-05-24T11:04:17.463Z,27.08
2023-05-24T11:05:20.457Z,27.05
2023-05-24T11:06:49.616Z,27.03
2023-05-24T11:08:00.089Z,27.08
2023-05-24T11:09:03.423Z,27.11
2023-05-24T11:10:13.964Z,27.11
2023-05-24T11:11:25.570Z,27.07
2023-05-24T11:12:38.738Z,27.04
2023-05-24T11:13:42.542Z,27.12
2023-05-24T11:14:50.365Z,27.17
2023-05-24T11:15:53.680Z,27.37
2023-05-24T11:16:57.908Z,27.52
2023-05-24T11:18:09.692Z,27.63
2023-05-24T11:19:24.896Z,27.66
2023-05-24T11:20:28.394Z,27.66
2023-05-24T11:21:31.841Z,27.66
2023-05-24T11:22:35.166Z,27.67
2023-05-24T11:23:38.484Z,27.65
2023-05-24T11:24:42.342Z,27.61
2023-05-24T11:25:48.808Z,27.60
2023-05-24T11:26:53.019Z,27.66
2023-05-24T11:27:59.722Z,27.68
2023-05-24T11:29:05.496Z,27.80
2023-05-24T11:30:09.195Z,27.91
2023-05-24T11:31:12.509Z,27.94
2023-05-24T11:32:20.619Z,27.95
2023-05-24T11:33:24.552Z,27.95
2023-05-24T11:34:27.619Z,27.99
2023-05-24T11:35:30.559Z,28.10
2023-05-24T11:36:33.858Z,28.32
2023-05-24T11:37:46.330Z,28.47
2023-05-24T11:38:50.155Z,28.59
2023-05-24T11:39:53.433Z,28.68
2023-05-24T11:40:58.574Z,28.75
2023-05-24T11:42:04.930Z,28.82
2023-05-24T11:43:08.051Z,28.98
2023-05-24T11:44:12.262Z,29.19
2023-05-24T11:45:15.822Z,29.40
2023-05-24T11:46:20.383Z,29.60
2023-05-24T11:47:23.636Z,29.74
2023-05-24T11:48:27.825Z,29.81
2023-05-24T11:49:30.828Z,29.87
2023-05-24T11:50:48.721Z,29.95
2023-05-24T11:51:57.925Z,30.12
2023-05-24T11:53:04.140Z,30.23
2023-05-24T11:54:07.052Z,30.27
2023-05-24T11:55:16.423Z,30.32
2023-05-24T11:56:21.688Z,30.41
2023-05-24T11:57:37.171Z,30.54
2023-05-24T11:58:49.038Z,30.72
2023-05-24T11:59:53.497Z,30.90
2023-05-24T12:00:56.393Z,31.01
2023-05-24T12:02:08.142Z,31.08
2023-05-24T12:03:11.322Z,31.03
2023-05-24T12:04:14.572Z,31.05
2023-05-24T12:05:19.397Z,31.14
2023-05-24T12:06:23.018Z,31.22
2023-05-24T12:07:25.963Z,31.35
2023-05-24T12:08:28.842Z,31.53
2023-05-24T12:09:31.934Z,31.78
2023-05-24T12:10:42.924Z,31.96
2023-05-24T12:11:51.240Z,32.06
2023-05-24T12:12:54.185Z,32.11
2023-05-24T12:13:58.529Z,32.16
2023-05-24T12:15:01.412Z,32.23
2023-05-24T12:16:04.414Z,32.49
2023-05-24T12:17:16.434Z,32.73
2023-05-24T12:18:23.747Z,32.97
2023-05-24T12:19:33.730Z,32.98
2023-05-24T12:20:39.198Z,32.77
2023-05-24T12:21:42.813Z,32.70
2023-05-24T12:22:52.949Z,32.69
2023-05-24T12:23:56.228Z,32.65
2023-05-24T12:24:59.135Z,32.61
2023-05-24T12:26:02.386Z,32.52
2023-05-24T12:27:09.260Z,32.29
2023-05-24T12:28:13.219Z,32.05
2023-05-24T12:29:16.877Z,31.84
2023-05-24T12:30:27.089Z,31.73
2023-05-24T12:31:30.124Z,31.49
2023-05-24T12:32:33.250Z,31.26
2023-05-24T12:33:37.957Z,31.03
2023-05-24T12:34:42.544Z,30.83
2023-05-24T12:35:48.061Z,30.61
2023-05-24T12:36:51.079Z,30.36
2023-05-24T12:38:00.191Z,30.19
2023-05-24T12:39:23.733Z,30.05
2023-05-24T12:40:26.917Z,29.79
2023-05-24T12:41:30.804Z,29.52
2023-05-24T12:42:33.986Z,29.36
2023-05-24T12:43:37.151Z,29.21
2023-05-24T12:44:40.797Z,29.02
2023-05-24T12:45:43.805Z,28.86
2023-05-24T12:46:46.771Z,28.81
2023-05-24T12:47:53.754Z,28.83
2023-05-24T12:48:56.663Z,28.89
2023-05-24T12:49:59.766Z,28.96
2023-05-24T12:51:04.052Z,28.99
2023-05-24T12:52:07.245Z,29.03
2023-05-24T12:53:10.602Z,29.08
2023-05-24T12:54:13.659Z,29.12
2023-05-24T12:55:17.069Z,29.14
2023-05-24T12:56:20.006Z,29.17
2023-05-24T12:57:22.868Z,29.18
2023-05-24T12:58:26.697Z,29.30
2023-05-24T12:59:30.221Z,29.52
2023-05-24T13:00:33.187Z,29.81
2023-05-24T13:01:36.649Z,30.12
2023-05-24T13:02:40.738Z,30.39
2023-05-24T13:03:43.905Z,30.49
2023-05-24T13:04:46.827Z,30.51
2023-05-24T13:05:49.859Z,30.50
2023-05-24T13:06:52.910Z,30.54
2023-05-24T13:07:56.919Z,30.60
2023-05-24T13:08:59.940Z,30.57
2023-05-24T13:10:03.822Z,30.42
2023-05-24T13:11:06.979Z,30.11
2023-05-24T13:12:10.266Z,29.85
2023-05-24T13:13:13.174Z,29.61
2023-05-24T13:14:17.088Z,29.35
2023-05-24T13:15:22.438Z,29.10
2023-05-24T13:16:26.323Z,28.87
2023-05-24T13:17:30.881Z,28.60
2023-05-24T13:18:34.020Z,28.38
2023-05-24T13:19:36.926Z,28.15
2023-05-24T13:20:39.897Z,27.96
2023-05-24T13:21:43.055Z,27.80
2023-05-24T13:22:46.075Z,27.61
2023-05-24T13:23:49.145Z,27.44
2023-05-24T13:24:52.563Z,27.35
2023-05-24T13:25:55.752Z,27.26
2023-05-24T13:26:59.440Z,27.17
2023-05-24T13:28:03.483Z,27.11
2023-05-24T13:29:32.374Z,27.05
2023-05-24T13:30:30.130Z,27.05
2023-05-24T13:31:33.227Z,27.09
2023-05-24T13:32:36.848Z,27.07
2023-05-24T13:33:40.652Z,27.06
2023-05-24T13:34:43.590Z,27.08
2023-05-24T13:35:46.619Z,27.10
2023-05-24T13:36:49.592Z,27.22
2023-05-24T13:37:54.430Z,27.38
2023-05-24T13:39:13.218Z,27.61
2023-05-24T13:40:18.429Z,27.86
2023-05-24T13:41:22.310Z,27.87
2023-05-24T13:42:25.441Z,27.85
2023-05-24T13:43:28.488Z,27.90
2023-05-24T13:44:32.435Z,27.91
2023-05-24T13:45:35.326Z,27.91
2023-05-24T13:46:39.383Z,27.97
2023-05-24T13:47:43.161Z,28.05
2023-05-24T13:48:46.410Z,28.09
2023-05-24T13:49:49.444Z,28.10
2023-05-24T13:50:52.373Z,28.08
2023-05-24T13:51:58.260Z,28.06
2023-05-24T13:53:02.976Z,28.02
2023-05-24T13:54:07.478Z,28.02
2023-05-24T13:55:10.905Z,28.02
2023-05-24T13:56:14.272Z,28.08